sensor_id;sensor_type;location;lat;lon;timestamp;P1;durP1;ratioP1;P2;durP2;ratioP2
46765;SDS011;32527;51.986;5.842;2023-05-29T00:00:14;11.35;;;4.57;;
46765;SDS011;32527;51.986;5.842;2023-05-29T00:02:45;7.07;;;5.85;;
46765;SDS011;32527;51.986;5.842;2023-05-29T00:05:12;6.53;;;4.03;;
46765;SDS011;32527;51.986;5.842;2023-05-29T00:07:38;5.68;;;4.28;;
46765;SDS011;32527;51.986;5.842;2023-05-29T00:10:05;14.55;;;4.20;;
46765;SDS011;32527;51.986;5.842;2023-05-29T00:12:32;4.78;;;3.70;;
46765;SDS011;32527;51.986;5.842;2023-05-29T00:14:58;9.65;;;4.57;;
46765;SDS011;32527;51.986;5.842;2023-05-29T00:17:24;6.85;;;4.35;;
46765;SDS011;32527;51.986;5.842;2023-05-29T00:19:51;5.25;;;4.72;;
46765;SDS011;32527;51.986;5.842;2023-05-29T00:22:17;5.97;;;4.75;;
46765;SDS011;32527;51.986;5.842;2023-05-29T00:24:44;7.05;;;4.15;;
46765;SDS011;32527;51.986;5.842;2023-05-29T00:27:10;3.88;;;3.58;;
46765;SDS011;32527;51.986;5.842;2023-05-29T00:29:36;9.18;;;5.43;;
46765;SDS011;32527;51.986;5.842;2023-05-29T00:32:03;17.50;;;5.53;;
46765;SDS011;32527;51.986;5.842;2023-05-29T00:34:30;9.35;;;3.90;;
46765;SDS011;32527;51.986;5.842;2023-05-29T00:36:58;13.98;;;4.40;;
46765;SDS011;32527;51.986;5.842;2023-05-29T00:39:24;7.50;;;4.45;;
46765;SDS011;32527;51.986;5.842;2023-05-29T00:41:50;7.38;;;3.80;;
46765;SDS011;32527;51.986;5.842;2023-05-29T00:44:17;15.25;;;4.35;;
46765;SDS011;32527;51.986;5.842;2023-05-29T00:46:43;7.93;;;3.42;;
46765;SDS011;32527;51.986;5.842;2023-05-29T00:49:09;11.70;;;10.80;;
46765;SDS011;32527;51.986;5.842;2023-05-29T00:51:36;8.85;;;4.25;;
46765;SDS011;32527;51.986;5.842;2023-05-29T00:54:04;10.15;;;4.05;;
46765;SDS011;32527;51.986;5.842;2023-05-29T00:56:32;7.25;;;6.72;;
46765;SDS011;32527;51.986;5.842;2023-05-29T00:59:00;9.20;;;4.22;;
46765;SDS011;32527;51.986;5.842;2023-05-29T01:01:26;9.07;;;5.32;;
46765;SDS011;32527;51.986;5.842;2023-05-29T01:03:54;7.28;;;3.75;;
46765;SDS011;32527;51.986;5.842;2023-05-29T01:06:22;7.93;;;4.15;;
46765;SDS011;32527;51.986;5.842;2023-05-29T01:08:48;8.10;;;3.83;;
46765;SDS011;32527;51.986;5.842;2023-05-29T01:13:54;3.95;;;3.25;;
46765;SDS011;32527;51.986;5.842;2023-05-29T01:16:26;5.85;;;3.92;;
46765;SDS011;32527;51.986;5.842;2023-05-29T01:29:14;7.50;;;3.85;;
46765;SDS011;32527;51.986;5.842;2023-05-29T01:31:41;6.60;;;3.53;;
46765;SDS011;32527;51.986;5.842;2023-05-29T01:34:08;6.53;;;4.30;;
46765;SDS011;32527;51.986;5.842;2023-05-29T01:36:34;6.43;;;4.10;;
46765;SDS011;32527;51.986;5.842;2023-05-29T01:39:01;6.30;;;3.65;;
46765;SDS011;32527;51.986;5.842;2023-05-29T01:41:27;6.93;;;3.75;;
46765;SDS011;32527;51.986;5.842;2023-05-29T01:43:55;9.40;;;3.67;;
46765;SDS011;32527;51.986;5.842;2023-05-29T01:46:22;9.63;;;3.40;;
46765;SDS011;32527;51.986;5.842;2023-05-29T01:48:50;6.55;;;3.42;;
46765;SDS011;32527;51.986;5.842;2023-05-29T01:51:16;6.28;;;3.97;;
46765;SDS011;32527;51.986;5.842;2023-05-29T01:53:42;8.45;;;3.55;;
46765;SDS011;32527;51.986;5.842;2023-05-29T01:56:10;5.90;;;3.30;;
46765;SDS011;32527;51.986;5.842;2023-05-29T01:58:37;8.73;;;3.97;;
46765;SDS011;32527;51.986;5.842;2023-05-29T02:01:03;7.15;;;3.25;;
46765;SDS011;32527;51.986;5.842;2023-05-29T02:03:30;18.98;;;4.68;;
46765;SDS011;32527;51.986;5.842;2023-05-29T02:05:57;17.10;;;3.97;;
46765;SDS011;32527;51.986;5.842;2023-05-29T02:08:23;5.43;;;3.17;;
46765;SDS011;32527;51.986;5.842;2023-05-29T02:10:49;11.63;;;4.47;;
46765;SDS011;32527;51.986;5.842;2023-05-29T02:13:15;6.10;;;3.47;;
46765;SDS011;32527;51.986;5.842;2023-05-29T02:15:42;9.45;;;3.15;;
46765;SDS011;32527;51.986;5.842;2023-05-29T02:18:09;4.25;;;3.85;;
46765;SDS011;32527;51.986;5.842;2023-05-29T02:20:37;7.97;;;3.05;;
46765;SDS011;32527;51.986;5.842;2023-05-29T02:23:03;5.40;;;3.03;;
46765;SDS011;32527;51.986;5.842;2023-05-29T02:25:29;9.65;;;2.83;;
46765;SDS011;32527;51.986;5.842;2023-05-29T02:27:55;5.32;;;3.58;;
46765;SDS011;32527;51.986;5.842;2023-05-29T02:30:22;10.82;;;3.90;;
46765;SDS011;32527;51.986;5.842;2023-05-29T02:32:48;13.25;;;3.90;;
46765;SDS011;32527;51.986;5.842;2023-05-29T02:35:14;5.50;;;3.20;;
46765;SDS011;32527;51.986;5.842;2023-05-29T02:37:42;5.95;;;3.95;;
46765;SDS011;32527;51.986;5.842;2023-05-29T02:40:08;8.57;;;3.83;;
46765;SDS011;32527;51.986;5.842;2023-05-29T02:42:37;6.22;;;3.83;;
46765;SDS011;32527;51.986;5.842;2023-05-29T02:45:03;13.07;;;3.63;;
46765;SDS011;32527;51.986;5.842;2023-05-29T02:47:31;9.85;;;3.50;;
46765;SDS011;32527;51.986;5.842;2023-05-29T02:49:57;10.40;;;4.43;;
46765;SDS011;32527;51.986;5.842;2023-05-29T02:52:23;16.85;;;3.70;;
46765;SDS011;32527;51.986;5.842;2023-05-29T02:54:49;16.55;;;4.10;;
46765;SDS011;32527;51.986;5.842;2023-05-29T02:57:15;4.82;;;3.40;;
46765;SDS011;32527;51.986;5.842;2023-05-29T02:59:41;7.00;;;5.50;;
46765;SDS011;32527;51.986;5.842;2023-05-29T03:02:09;9.02;;;3.88;;
46765;SDS011;32527;51.986;5.842;2023-05-29T03:04:35;7.07;;;5.80;;
46765;SDS011;32527;51.986;5.842;2023-05-29T03:07:01;8.38;;;4.22;;
46765;SDS011;32527;51.986;5.842;2023-05-29T03:09:30;19.55;;;18.27;;
46765;SDS011;32527;51.986;5.842;2023-05-29T03:11:56;11.50;;;4.32;;
46765;SDS011;32527;51.986;5.842;2023-05-29T03:14:22;6.25;;;3.28;;
46765;SDS011;32527;51.986;5.842;2023-05-29T03:16:49;15.65;;;3.67;;
46765;SDS011;32527;51.986;5.842;2023-05-29T03:19:15;13.85;;;5.20;;
46765;SDS011;32527;51.986;5.842;2023-05-29T03:21:43;7.53;;;3.63;;
46765;SDS011;32527;51.986;5.842;2023-05-29T03:24:09;15.20;;;3.35;;
46765;SDS011;32527;51.986;5.842;2023-05-29T03:26:36;5.18;;;3.10;;
46765;SDS011;32527;51.986;5.842;2023-05-29T03:29:03;13.10;;;3.70;;
46765;SDS011;32527;51.986;5.842;2023-05-29T03:31:31;7.95;;;3.42;;
46765;SDS011;32527;51.986;5.842;2023-05-29T03:33:58;6.88;;;3.42;;
46765;SDS011;32527;51.986;5.842;2023-05-29T03:36:37;4.72;;;3.72;;
46765;SDS011;32527;51.986;5.842;2023-05-29T03:39:03;10.48;;;3.45;;
46765;SDS011;32527;51.986;5.842;2023-05-29T03:41:30;10.93;;;3.65;;
46765;SDS011;32527;51.986;5.842;2023-05-29T03:43:56;7.90;;;3.67;;
46765;SDS011;32527;51.986;5.842;2023-05-29T03:46:25;8.77;;;3.33;;
46765;SDS011;32527;51.986;5.842;2023-05-29T03:48:52;9.40;;;3.42;;
46765;SDS011;32527;51.986;5.842;2023-05-29T03:51:19;11.10;;;3.83;;
46765;SDS011;32527;51.986;5.842;2023-05-29T03:53:47;13.13;;;3.22;;
46765;SDS011;32527;51.986;5.842;2023-05-29T03:56:13;4.20;;;2.72;;
46765;SDS011;32527;51.986;5.842;2023-05-29T03:58:40;18.48;;;4.70;;
46765;SDS011;32527;51.986;5.842;2023-05-29T04:01:08;6.28;;;3.45;;
46765;SDS011;32527;51.986;5.842;2023-05-29T04:03:34;7.45;;;3.08;;
46765;SDS011;32527;51.986;5.842;2023-05-29T04:06:01;4.57;;;3.08;;
46765;SDS011;32527;51.986;5.842;2023-05-29T04:08:27;5.78;;;3.38;;
46765;SDS011;32527;51.986;5.842;2023-05-29T04:10:53;4.25;;;3.70;;
46765;SDS011;32527;51.986;5.842;2023-05-29T04:13:21;9.13;;;3.63;;
46765;SDS011;32527;51.986;5.842;2023-05-29T04:15:47;10.18;;;4.35;;
46765;SDS011;32527;51.986;5.842;2023-05-29T04:18:14;17.42;;;5.68;;
46765;SDS011;32527;51.986;5.842;2023-05-29T04:20:40;6.22;;;4.68;;
46765;SDS011;32527;51.986;5.842;2023-05-29T04:23:06;5.07;;;4.63;;
46765;SDS011;32527;51.986;5.842;2023-05-29T04:25:32;7.57;;;3.28;;
46765;SDS011;32527;51.986;5.842;2023-05-29T04:27:59;8.45;;;3.28;;
46765;SDS011;32527;51.986;5.842;2023-05-29T04:30:27;9.13;;;3.90;;
46765;SDS011;32527;51.986;5.842;2023-05-29T04:32:54;16.70;;;5.60;;
46765;SDS011;32527;51.986;5.842;2023-05-29T04:35:22;8.60;;;4.13;;
46765;SDS011;32527;51.986;5.842;2023-05-29T04:37:56;13.35;;;5.35;;
46765;SDS011;32527;51.986;5.842;2023-05-29T04:40:25;10.43;;;3.25;;
46765;SDS011;32527;51.986;5.842;2023-05-29T04:42:52;4.63;;;3.28;;
46765;SDS011;32527;51.986;5.842;2023-05-29T04:45:19;9.75;;;4.00;;
46765;SDS011;32527;51.986;5.842;2023-05-29T04:47:46;9.75;;;4.65;;
46765;SDS011;32527;51.986;5.842;2023-05-29T04:50:12;7.15;;;4.15;;
46765;SDS011;32527;51.986;5.842;2023-05-29T04:52:41;4.90;;;3.40;;
46765;SDS011;32527;51.986;5.842;2023-05-29T04:55:09;5.30;;;3.83;;
46765;SDS011;32527;51.986;5.842;2023-05-29T04:57:36;7.30;;;3.58;;
46765;SDS011;32527;51.986;5.842;2023-05-29T05:00:03;7.75;;;3.53;;
46765;SDS011;32527;51.986;5.842;2023-05-29T05:02:37;16.83;;;5.03;;
46765;SDS011;32527;51.986;5.842;2023-05-29T05:05:04;8.10;;;3.33;;
46765;SDS011;32527;51.986;5.842;2023-05-29T05:07:31;13.45;;;8.82;;
46765;SDS011;32527;51.986;5.842;2023-05-29T05:09:57;6.00;;;3.70;;
46765;SDS011;32527;51.986;5.842;2023-05-29T05:12:26;6.97;;;4.85;;
46765;SDS011;32527;51.986;5.842;2023-05-29T05:14:52;8.27;;;7.63;;
46765;SDS011;32527;51.986;5.842;2023-05-29T05:17:18;9.70;;;5.28;;
46765;SDS011;32527;51.986;5.842;2023-05-29T05:19:45;9.77;;;6.88;;
46765;SDS011;32527;51.986;5.842;2023-05-29T05:22:11;10.13;;;7.22;;
46765;SDS011;32527;51.986;5.842;2023-05-29T05:24:37;14.90;;;13.65;;
46765;SDS011;32527;51.986;5.842;2023-05-29T05:27:04;8.95;;;8.10;;
46765;SDS011;32527;51.986;5.842;2023-05-29T05:29:30;10.93;;;10.13;;
46765;SDS011;32527;51.986;5.842;2023-05-29T05:31:57;20.85;;;12.15;;
46765;SDS011;32527;51.986;5.842;2023-05-29T05:34:23;31.50;;;29.73;;
46765;SDS011;32527;51.986;5.842;2023-05-29T05:36:49;18.23;;;17.13;;
46765;SDS011;32527;51.986;5.842;2023-05-29T05:39:15;9.70;;;8.95;;
46765;SDS011;32527;51.986;5.842;2023-05-29T05:41:45;21.48;;;13.30;;
46765;SDS011;32527;51.986;5.842;2023-05-29T05:44:15;17.55;;;16.50;;
46765;SDS011;32527;51.986;5.842;2023-05-29T05:46:48;19.23;;;18.13;;
46765;SDS011;32527;51.986;5.842;2023-05-29T05:49:14;17.33;;;15.98;;
46765;SDS011;32527;51.986;5.842;2023-05-29T05:51:41;20.55;;;18.92;;
46765;SDS011;32527;51.986;5.842;2023-05-29T05:54:08;19.10;;;18.02;;
46765;SDS011;32527;51.986;5.842;2023-05-29T05:56:34;23.20;;;21.98;;
46765;SDS011;32527;51.986;5.842;2023-05-29T05:59:01;24.33;;;22.55;;
46765;SDS011;32527;51.986;5.842;2023-05-29T06:01:27;35.22;;;33.22;;
46765;SDS011;32527;51.986;5.842;2023-05-29T06:03:53;37.60;;;35.38;;
46765;SDS011;32527;51.986;5.842;2023-05-29T06:06:19;49.80;;;47.17;;
46765;SDS011;32527;51.986;5.842;2023-05-29T06:08:47;39.10;;;36.92;;
46765;SDS011;32527;51.986;5.842;2023-05-29T06:11:14;42.00;;;39.90;;
46765;SDS011;32527;51.986;5.842;2023-05-29T06:13:43;53.17;;;50.28;;
46765;SDS011;32527;51.986;5.842;2023-05-29T06:18:43;47.30;;;44.95;;
46765;SDS011;32527;51.986;5.842;2023-05-29T06:21:09;91.28;;;86.50;;
46765;SDS011;32527;51.986;5.842;2023-05-29T06:23:42;76.87;;;72.93;;
46765;SDS011;32527;51.986;5.842;2023-05-29T06:26:09;81.13;;;76.75;;
46765;SDS011;32527;51.986;5.842;2023-05-29T06:28:36;86.82;;;82.35;;
46765;SDS011;32527;51.986;5.842;2023-05-29T06:31:02;104.45;;;98.65;;
46765;SDS011;32527;51.986;5.842;2023-05-29T06:33:28;98.40;;;93.45;;
46765;SDS011;32527;51.986;5.842;2023-05-29T06:35:55;96.97;;;91.95;;
46765;SDS011;32527;51.986;5.842;2023-05-29T06:38:21;128.00;;;121.38;;
46765;SDS011;32527;51.986;5.842;2023-05-29T06:40:47;124.97;;;118.15;;
46765;SDS011;32527;51.986;5.842;2023-05-29T06:43:13;141.73;;;134.23;;
46765;SDS011;32527;51.986;5.842;2023-05-29T06:45:45;137.73;;;130.50;;
46765;SDS011;32527;51.986;5.842;2023-05-29T06:48:11;131.73;;;124.70;;
46765;SDS011;32527;51.986;5.842;2023-05-29T06:50:39;135.88;;;128.43;;
46765;SDS011;32527;51.986;5.842;2023-05-29T06:53:25;142.27;;;134.40;;
46765;SDS011;32527;51.986;5.842;2023-05-29T06:55:54;171.75;;;162.13;;
46765;SDS011;32527;51.986;5.842;2023-05-29T06:58:20;175.32;;;165.75;;
46765;SDS011;32527;51.986;5.842;2023-05-29T07:00:46;185.43;;;175.80;;
46765;SDS011;32527;51.986;5.842;2023-05-29T07:03:25;177.07;;;167.50;;
46765;SDS011;32527;51.986;5.842;2023-05-29T07:05:52;181.98;;;172.45;;
46765;SDS011;32527;51.986;5.842;2023-05-29T07:08:19;177.80;;;168.15;;
46765;SDS011;32527;51.986;5.842;2023-05-29T07:10:45;176.65;;;167.38;;
46765;SDS011;32527;51.986;5.842;2023-05-29T07:13:16;160.60;;;151.90;;
46765;SDS011;32527;51.986;5.842;2023-05-29T07:15:43;185.82;;;176.25;;
46765;SDS011;32527;51.986;5.842;2023-05-29T07:18:10;190.27;;;180.18;;
46765;SDS011;32527;51.986;5.842;2023-05-29T07:20:37;189.30;;;179.10;;
46765;SDS011;32527;51.986;5.842;2023-05-29T07:23:03;181.15;;;171.23;;
46765;SDS011;32527;51.986;5.842;2023-05-29T07:25:31;206.30;;;195.63;;
46765;SDS011;32527;51.986;5.842;2023-05-29T07:27:58;194.07;;;183.82;;
46765;SDS011;32527;51.986;5.842;2023-05-29T07:30:24;191.38;;;181.38;;
46765;SDS011;32527;51.986;5.842;2023-05-29T07:32:52;185.82;;;175.95;;
46765;SDS011;32527;51.986;5.842;2023-05-29T07:35:18;199.93;;;189.23;;
46765;SDS011;32527;51.986;5.842;2023-05-29T07:37:46;202.93;;;191.82;;
46765;SDS011;32527;51.986;5.842;2023-05-29T07:40:14;233.75;;;221.23;;
46765;SDS011;32527;51.986;5.842;2023-05-29T07:43:09;216.75;;;204.73;;
46765;SDS011;32527;51.986;5.842;2023-05-29T07:45:44;202.77;;;191.32;;
46765;SDS011;32527;51.986;5.842;2023-05-29T07:48:10;214.35;;;202.63;;
46765;SDS011;32527;51.986;5.842;2023-05-29T07:50:36;189.52;;;179.27;;
46765;SDS011;32527;51.986;5.842;2023-05-29T07:53:02;197.15;;;186.60;;
46765;SDS011;32527;51.986;5.842;2023-05-29T07:55:29;182.32;;;172.45;;
46765;SDS011;32527;51.986;5.842;2023-05-29T07:57:56;189.63;;;179.30;;
46765;SDS011;32527;51.986;5.842;2023-05-29T08:00:22;212.93;;;201.38;;
46765;SDS011;32527;51.986;5.842;2023-05-29T08:02:50;227.45;;;214.85;;
46765;SDS011;32527;51.986;5.842;2023-05-29T08:05:29;224.98;;;212.68;;
46765;SDS011;32527;51.986;5.842;2023-05-29T08:07:58;245.32;;;231.40;;
46765;SDS011;32527;51.986;5.842;2023-05-29T08:10:25;228.45;;;215.82;;
46765;SDS011;32527;51.986;5.842;2023-05-29T08:12:51;215.98;;;204.07;;
46765;SDS011;32527;51.986;5.842;2023-05-29T08:15:19;250.25;;;235.60;;
46765;SDS011;32527;51.986;5.842;2023-05-29T08:17:45;264.50;;;249.48;;
46765;SDS011;32527;51.986;5.842;2023-05-29T08:20:12;244.18;;;230.40;;
46765;SDS011;32527;51.986;5.842;2023-05-29T08:22:38;251.73;;;237.45;;
46765;SDS011;32527;51.986;5.842;2023-05-29T08:25:04;238.23;;;224.60;;
46765;SDS011;32527;51.986;5.842;2023-05-29T08:27:30;222.45;;;210.13;;
46765;SDS011;32527;51.986;5.842;2023-05-29T08:29:56;213.25;;;201.60;;
46765;SDS011;32527;51.986;5.842;2023-05-29T08:32:22;208.38;;;197.13;;
46765;SDS011;32527;51.986;5.842;2023-05-29T08:34:48;181.00;;;171.32;;
46765;SDS011;32527;51.986;5.842;2023-05-29T08:37:15;188.85;;;178.88;;
46765;SDS011;32527;51.986;5.842;2023-05-29T08:39:41;190.40;;;180.32;;
46765;SDS011;32527;51.986;5.842;2023-05-29T08:42:07;198.02;;;186.82;;
46765;SDS011;32527;51.986;5.842;2023-05-29T08:44:39;220.95;;;208.68;;
46765;SDS011;32527;51.986;5.842;2023-05-29T08:47:06;220.63;;;208.30;;
46765;SDS011;32527;51.986;5.842;2023-05-29T08:49:42;227.93;;;215.20;;
46765;SDS011;32527;51.986;5.842;2023-05-29T08:52:17;220.05;;;207.93;;
46765;SDS011;32527;51.986;5.842;2023-05-29T08:54:45;216.65;;;204.35;;
46765;SDS011;32527;51.986;5.842;2023-05-29T08:57:11;226.75;;;213.82;;
46765;SDS011;32527;51.986;5.842;2023-05-29T08:59:39;235.05;;;222.13;;
46765;SDS011;32527;51.986;5.842;2023-05-29T09:02:07;245.13;;;231.38;;
46765;SDS011;32527;51.986;5.842;2023-05-29T09:04:33;217.88;;;206.48;;
46765;SDS011;32527;51.986;5.842;2023-05-29T09:06:59;216.52;;;205.07;;
46765;SDS011;32527;51.986;5.842;2023-05-29T09:09:25;224.25;;;212.27;;
46765;SDS011;32527;51.986;5.842;2023-05-29T09:11:56;204.27;;;193.52;;
46765;SDS011;32527;51.986;5.842;2023-05-29T09:17:01;165.68;;;156.68;;
46765;SDS011;32527;51.986;5.842;2023-05-29T09:19:28;197.18;;;186.70;;
46765;SDS011;32527;51.986;5.842;2023-05-29T09:24:28;180.75;;;171.15;;
46765;SDS011;32527;51.986;5.842;2023-05-29T09:26:55;259.55;;;243.68;;
46765;SDS011;32527;51.986;5.842;2023-05-29T09:29:21;186.07;;;175.73;;
46765;SDS011;32527;51.986;5.842;2023-05-29T09:31:47;213.00;;;201.18;;
46765;SDS011;32527;51.986;5.842;2023-05-29T09:34:14;220.98;;;208.75;;
46765;SDS011;32527;51.986;5.842;2023-05-29T09:36:40;239.93;;;226.80;;
46765;SDS011;32527;51.986;5.842;2023-05-29T09:39:06;230.30;;;217.23;;
46765;SDS011;32527;51.986;5.842;2023-05-29T09:41:42;239.82;;;226.65;;
46765;SDS011;32527;51.986;5.842;2023-05-29T09:44:12;228.77;;;215.50;;
46765;SDS011;32527;51.986;5.842;2023-05-29T09:46:40;235.82;;;222.63;;
46765;SDS011;32527;51.986;5.842;2023-05-29T09:49:11;253.38;;;239.27;;
46765;SDS011;32527;51.986;5.842;2023-05-29T09:51:38;258.65;;;243.35;;
46765;SDS011;32527;51.986;5.842;2023-05-29T09:54:16;278.98;;;262.55;;
46765;SDS011;32527;51.986;5.842;2023-05-29T09:56:43;249.65;;;235.18;;
46765;SDS011;32527;51.986;5.842;2023-05-29T09:59:13;254.00;;;239.75;;
46765;SDS011;32527;51.986;5.842;2023-05-29T10:01:40;271.73;;;256.20;;
46765;SDS011;32527;51.986;5.842;2023-05-29T10:04:12;274.05;;;258.17;;
46765;SDS011;32527;51.986;5.842;2023-05-29T10:06:44;256.35;;;241.90;;
46765;SDS011;32527;51.986;5.842;2023-05-29T10:09:12;270.20;;;254.63;;
46765;SDS011;32527;51.986;5.842;2023-05-29T10:11:41;258.65;;;243.98;;
46765;SDS011;32527;51.986;5.842;2023-05-29T10:14:09;267.90;;;252.30;;
46765;SDS011;32527;51.986;5.842;2023-05-29T10:16:40;274.73;;;259.13;;
46765;SDS011;32527;51.986;5.842;2023-05-29T10:19:11;280.15;;;263.52;;
46765;SDS011;32527;51.986;5.842;2023-05-29T10:21:40;263.35;;;248.90;;
46765;SDS011;32527;51.986;5.842;2023-05-29T10:24:07;264.48;;;249.82;;
46765;SDS011;32527;51.986;5.842;2023-05-29T10:26:34;267.98;;;252.90;;
46765;SDS011;32527;51.986;5.842;2023-05-29T10:29:12;256.65;;;242.57;;
46765;SDS011;32527;51.986;5.842;2023-05-29T10:34:29;252.55;;;237.65;;
46765;SDS011;32527;51.986;5.842;2023-05-29T10:40:09;276.38;;;260.13;;
46765;SDS011;32527;51.986;5.842;2023-05-29T10:42:45;295.58;;;277.77;;
46765;SDS011;32527;51.986;5.842;2023-05-29T10:48:41;258.23;;;243.57;;
46765;SDS011;32527;51.986;5.842;2023-05-29T10:50:46;255.15;;;241.30;;
46765;SDS011;32527;51.986;5.842;2023-05-29T10:53:16;254.65;;;240.48;;
46765;SDS011;32527;51.986;5.842;2023-05-29T10:55:44;216.52;;;203.95;;
46765;SDS011;32527;51.986;5.842;2023-05-29T10:58:12;245.50;;;232.48;;
46765;SDS011;32527;51.986;5.842;2023-05-29T11:00:40;240.50;;;227.38;;
46765;SDS011;32527;51.986;5.842;2023-05-29T11:03:11;227.80;;;215.20;;
46765;SDS011;32527;51.986;5.842;2023-05-29T11:06:18;244.63;;;231.48;;
46765;SDS011;32527;51.986;5.842;2023-05-29T11:08:44;207.50;;;196.00;;
46765;SDS011;32527;51.986;5.842;2023-05-29T11:13:52;206.73;;;195.77;;
46765;SDS011;32527;51.986;5.842;2023-05-29T11:18:50;196.02;;;185.13;;
46765;SDS011;32527;51.986;5.842;2023-05-29T11:21:29;191.95;;;181.40;;
46765;SDS011;32527;51.986;5.842;2023-05-29T11:23:57;136.57;;;129.55;;
46765;SDS011;32527;51.986;5.842;2023-05-29T11:26:26;163.63;;;155.27;;
46765;SDS011;32527;51.986;5.842;2023-05-29T11:28:52;167.73;;;159.00;;
46765;SDS011;32527;51.986;5.842;2023-05-29T11:31:19;198.38;;;187.65;;
46765;SDS011;32527;51.986;5.842;2023-05-29T11:33:50;196.20;;;185.55;;
46765;SDS011;32527;51.986;5.842;2023-05-29T11:36:17;167.68;;;158.98;;
46765;SDS011;32527;51.986;5.842;2023-05-29T11:38:44;169.60;;;160.68;;
46765;SDS011;32527;51.986;5.842;2023-05-29T11:41:11;208.65;;;197.10;;
46765;SDS011;32527;51.986;5.842;2023-05-29T11:43:36;160.32;;;151.70;;
46765;SDS011;32527;51.986;5.842;2023-05-29T11:46:10;162.90;;;154.57;;
46765;SDS011;32527;51.986;5.842;2023-05-29T11:48:45;143.43;;;136.25;;
46765;SDS011;32527;51.986;5.842;2023-05-29T11:51:12;156.38;;;148.00;;
46765;SDS011;32527;51.986;5.842;2023-05-29T11:53:40;157.32;;;148.93;;
46765;SDS011;32527;51.986;5.842;2023-05-29T11:56:09;198.98;;;188.40;;
46765;SDS011;32527;51.986;5.842;2023-05-29T11:58:36;141.00;;;133.50;;
46765;SDS011;32527;51.986;5.842;2023-05-29T12:01:03;146.30;;;138.50;;
46765;SDS011;32527;51.986;5.842;2023-05-29T12:03:29;178.75;;;169.13;;
46765;SDS011;32527;51.986;5.842;2023-05-29T12:05:56;123.45;;;116.97;;
46765;SDS011;32527;51.986;5.842;2023-05-29T12:08:22;114.07;;;108.43;;
46765;SDS011;32527;51.986;5.842;2023-05-29T12:10:49;93.55;;;88.75;;
46765;SDS011;32527;51.986;5.842;2023-05-29T12:13:15;100.78;;;95.45;;
46765;SDS011;32527;51.986;5.842;2023-05-29T12:15:44;108.60;;;102.97;;
46765;SDS011;32527;51.986;5.842;2023-05-29T12:18:10;92.93;;;87.75;;
46765;SDS011;32527;51.986;5.842;2023-05-29T12:20:36;90.30;;;85.53;;
46765;SDS011;32527;51.986;5.842;2023-05-29T12:23:03;107.20;;;101.63;;
46765;SDS011;32527;51.986;5.842;2023-05-29T12:25:29;100.57;;;95.50;;
46765;SDS011;32527;51.986;5.842;2023-05-29T12:27:55;111.45;;;105.60;;
46765;SDS011;32527;51.986;5.842;2023-05-29T12:30:23;129.13;;;122.68;;
46765;SDS011;32527;51.986;5.842;2023-05-29T12:32:50;113.13;;;107.25;;
46765;SDS011;32527;51.986;5.842;2023-05-29T12:35:21;97.97;;;93.20;;
46765;SDS011;32527;51.986;5.842;2023-05-29T12:37:54;98.05;;;92.95;;
46765;SDS011;32527;51.986;5.842;2023-05-29T12:40:21;95.75;;;90.70;;
46765;SDS011;32527;51.986;5.842;2023-05-29T12:42:48;102.80;;;97.22;;
46765;SDS011;32527;51.986;5.842;2023-05-29T12:45:18;120.95;;;114.57;;
46765;SDS011;32527;51.986;5.842;2023-05-29T12:47:54;98.75;;;93.63;;
46765;SDS011;32527;51.986;5.842;2023-05-29T12:50:25;90.13;;;85.55;;
46765;SDS011;32527;51.986;5.842;2023-05-29T12:52:54;91.07;;;86.38;;
46765;SDS011;32527;51.986;5.842;2023-05-29T12:55:20;100.63;;;95.43;;
46765;SDS011;32527;51.986;5.842;2023-05-29T12:57:46;92.50;;;87.38;;
46765;SDS011;32527;51.986;5.842;2023-05-29T13:00:13;75.95;;;71.68;;
46765;SDS011;32527;51.986;5.842;2023-05-29T13:02:39;82.13;;;77.80;;
46765;SDS011;32527;51.986;5.842;2023-05-29T13:05:05;87.32;;;82.60;;
46765;SDS011;32527;51.986;5.842;2023-05-29T13:07:32;78.05;;;73.57;;
46765;SDS011;32527;51.986;5.842;2023-05-29T13:09:59;87.25;;;82.78;;
46765;SDS011;32527;51.986;5.842;2023-05-29T13:12:25;86.03;;;81.65;;
46765;SDS011;32527;51.986;5.842;2023-05-29T13:14:51;81.45;;;77.22;;
46765;SDS011;32527;51.986;5.842;2023-05-29T13:17:17;94.53;;;89.53;;
46765;SDS011;32527;51.986;5.842;2023-05-29T13:19:43;78.07;;;74.22;;
46765;SDS011;32527;51.986;5.842;2023-05-29T13:22:09;82.80;;;78.32;;
46765;SDS011;32527;51.986;5.842;2023-05-29T13:24:35;85.05;;;80.28;;
46765;SDS011;32527;51.986;5.842;2023-05-29T13:27:01;93.28;;;88.20;;
46765;SDS011;32527;51.986;5.842;2023-05-29T13:29:28;95.47;;;90.70;;
46765;SDS011;32527;51.986;5.842;2023-05-29T13:31:54;101.55;;;96.03;;
46765;SDS011;32527;51.986;5.842;2023-05-29T13:34:20;164.05;;;155.60;;
46765;SDS011;32527;51.986;5.842;2023-05-29T13:36:48;103.10;;;97.88;;
46765;SDS011;32527;51.986;5.842;2023-05-29T13:39:14;129.73;;;123.18;;
46765;SDS011;32527;51.986;5.842;2023-05-29T13:41:40;92.70;;;88.00;;
46765;SDS011;32527;51.986;5.842;2023-05-29T13:44:06;115.20;;;109.05;;
46765;SDS011;32527;51.986;5.842;2023-05-29T13:46:33;113.03;;;107.28;;
46765;SDS011;32527;51.986;5.842;2023-05-29T13:48:59;129.10;;;122.15;;
46765;SDS011;32527;51.986;5.842;2023-05-29T13:51:25;124.57;;;118.25;;
46765;SDS011;32527;51.986;5.842;2023-05-29T13:53:51;142.52;;;135.32;;
46765;SDS011;32527;51.986;5.842;2023-05-29T13:56:17;116.63;;;110.57;;
46765;SDS011;32527;51.986;5.842;2023-05-29T13:58:42;136.98;;;129.65;;
46765;SDS011;32527;51.986;5.842;2023-05-29T14:01:09;153.05;;;145.10;;
46765;SDS011;32527;51.986;5.842;2023-05-29T14:03:35;182.15;;;172.57;;
46765;SDS011;32527;51.986;5.842;2023-05-29T14:06:01;123.88;;;117.28;;
46765;SDS011;32527;51.986;5.842;2023-05-29T14:08:30;134.82;;;127.72;;
46765;SDS011;32527;51.986;5.842;2023-05-29T14:10:56;104.57;;;99.20;;
46765;SDS011;32527;51.986;5.842;2023-05-29T14:13:22;89.55;;;84.97;;
46765;SDS011;32527;51.986;5.842;2023-05-29T14:15:48;95.30;;;90.60;;
46765;SDS011;32527;51.986;5.842;2023-05-29T14:18:14;143.77;;;136.30;;
46765;SDS011;32527;51.986;5.842;2023-05-29T14:20:40;83.75;;;79.53;;
46765;SDS011;32527;51.986;5.842;2023-05-29T14:23:06;65.43;;;61.95;;
46765;SDS011;32527;51.986;5.842;2023-05-29T14:25:39;75.97;;;71.93;;
46765;SDS011;32527;51.986;5.842;2023-05-29T14:28:05;57.33;;;54.55;;
46765;SDS011;32527;51.986;5.842;2023-05-29T14:30:31;85.65;;;81.25;;
46765;SDS011;32527;51.986;5.842;2023-05-29T14:32:57;114.22;;;108.00;;
46765;SDS011;32527;51.986;5.842;2023-05-29T14:35:23;66.20;;;62.90;;
46765;SDS011;32527;51.986;5.842;2023-05-29T14:37:49;52.95;;;50.10;;
46765;SDS011;32527;51.986;5.842;2023-05-29T14:40:15;72.78;;;69.10;;
46765;SDS011;32527;51.986;5.842;2023-05-29T14:42:42;58.47;;;55.58;;
46765;SDS011;32527;51.986;5.842;2023-05-29T14:45:08;58.03;;;55.00;;
46765;SDS011;32527;51.986;5.842;2023-05-29T14:47:37;65.00;;;61.65;;
46765;SDS011;32527;51.986;5.842;2023-05-29T14:50:04;49.58;;;47.00;;
46765;SDS011;32527;51.986;5.842;2023-05-29T14:52:30;54.03;;;51.42;;
46765;SDS011;32527;51.986;5.842;2023-05-29T14:54:56;53.28;;;50.60;;